createdAt,value
2022-11-17T00:00:32.462Z,98239.63
2022-11-17T00:03:00.924Z,98230.25
2022-11-17T00:05:30.654Z,98227.00
2022-11-17T00:07:59.008Z,98221.22
2022-11-17T00:10:27.486Z,98215.19
2022-11-17T00:13:13.435Z,98207.38
2022-11-17T00:15:45.283Z,98202.19
2022-11-17T00:18:31.297Z,98196.28
2022-11-17T00:21:23.919Z,98196.34
2022-11-17T00:23:52.446Z,98192.03
2022-11-17T00:26:23.150Z,98186.16
2022-11-17T00:28:54.741Z,98187.00
2022-11-17T00:31:42.267Z,98187.94
2022-11-17T00:34:15.256Z,98182.06
2022-11-17T00:36:47.879Z,98176.75
2022-11-17T00:39:19.468Z,98182.91
2022-11-17T00:41:47.952Z,98173.63
2022-11-17T00:44:16.854Z,98167.81
2022-11-17T00:46:45.637Z,98160.13
2022-11-17T00:49:14.629Z,98154.50
2022-11-17T00:51:44.997Z,98150.13
2022-11-17T00:54:15.525Z,98138.34
2022-11-17T00:56:44.090Z,98130.47
2022-11-17T00:59:13.458Z,98128.00
2022-11-17T01:01:42.730Z,98119.31
2022-11-17T01:04:11.527Z,98107.16
2022-11-17T01:06:42.794Z,98102.81
2022-11-17T01:09:17.239Z,98107.16
2022-11-17T01:11:46.473Z,98106.34
2022-11-17T01:14:19.493Z,98105.34
2022-11-17T01:16:48.367Z,98100.16
2022-11-17T01:19:19.945Z,98100.16
2022-11-17T01:21:48.828Z,98103.63
2022-11-17T01:24:19.302Z,98092.34
2022-11-17T01:26:49.678Z,98092.31
2022-11-17T01:29:18.415Z,98090.34
2022-11-17T01:31:52.934Z,98080.13
2022-11-17T01:34:21.448Z,98079.25
2022-11-17T01:37:07.243Z,98070.56
2022-11-17T01:39:37.197Z,98067.06
2022-11-17T01:42:11.084Z,98060.22
2022-11-17T01:45:01.838Z,98051.53
2022-11-17T01:47:42.893Z,98043.53
2022-11-17T01:50:24.953Z,98037.75
2022-11-17T01:52:56.414Z,98032.53
2022-11-17T01:55:31.185Z,98020.00
2022-11-17T01:58:04.486Z,98018.38
2022-11-17T02:00:33.143Z,98013.34
2022-11-17T02:03:02.330Z,98001.88
2022-11-17T02:05:43.581Z,98000.91
2022-11-17T02:08:13.227Z,97994.16
2022-11-17T02:10:50.170Z,97997.66
2022-11-17T02:13:21.582Z,97992.34
2022-11-17T02:15:50.432Z,97992.34
2022-11-17T02:18:19.373Z,97977.09
2022-11-17T02:21:12.391Z,97988.09
2022-11-17T02:24:13.057Z,97979.59
2022-11-17T02:27:26.940Z,97968.41
2022-11-17T02:30:03.189Z,97977.09
2022-11-17T02:32:38.380Z,97965.91
2022-11-17T02:35:20.910Z,97961.59
2022-11-17T02:38:04.139Z,97955.78
2022-11-17T02:40:44.750Z,97952.34
2022-11-17T02:43:39.396Z,97948.22
2022-11-17T02:46:15.473Z,97944.00
2022-11-17T02:48:54.373Z,97937.06
2022-11-17T02:51:26.781Z,97934.63
2022-11-17T02:54:02.814Z,97927.09
2022-11-17T02:56:34.056Z,97922.81
2022-11-17T02:59:08.698Z,97933.16
2022-11-17T03:02:05.589Z,97927.28
2022-11-17T03:04:50.119Z,97924.66
2022-11-17T03:07:45.597Z,97915.25
2022-11-17T03:10:24.122Z,97911.63
2022-11-17T03:13:02.096Z,97905.63
2022-11-17T03:15:47.694Z,97904.97
2022-11-17T03:18:26.243Z,97904.09
2022-11-17T03:21:06.913Z,97900.47
2022-11-17T03:23:42.284Z,97898.78
2022-11-17T03:26:15.284Z,97903.19
2022-11-17T03:28:46.393Z,97895.53
2022-11-17T03:31:17.968Z,97889.41
2022-11-17T03:33:50.062Z,97881.81
2022-11-17T03:36:24.185Z,97868.13
2022-11-17T03:38:59.538Z,97852.59
2022-11-17T03:41:31.557Z,97862.09
2022-11-17T03:44:01.935Z,97855.97
2022-11-17T03:46:33.315Z,97857.69
2022-11-17T03:49:12.079Z,97857.69
2022-11-17T03:51:40.778Z,97844.75
2022-11-17T03:54:11.590Z,97849.97
2022-11-17T03:56:47.328Z,97852.25
2022-11-17T03:59:21.019Z,97852.97
2022-11-17T04:01:52.592Z,97845.25
2022-11-17T04:04:23.431Z,97840.06
2022-11-17T04:06:53.877Z,97840.03
2022-11-17T04:09:24.601Z,97837.44
2022-11-17T04:12:10.874Z,97836.47
2022-11-17T04:14:53.169Z,97832.97
2022-11-17T04:17:23.113Z,97828.59
2022-11-17T04:19:51.502Z,97839.72
2022-11-17T04:22:19.913Z,97831.19
2022-11-17T04:24:48.341Z,97824.19
2022-11-17T04:27:34.284Z,97824.06
2022-11-17T04:30:02.809Z,97828.19
2022-11-17T04:32:33.851Z,97845.19
2022-11-17T04:35:02.656Z,97842.69
2022-11-17T04:37:31.046Z,97833.19
2022-11-17T04:39:59.734Z,97841.59
2022-11-17T04:42:27.138Z,97835.56
2022-11-17T04:44:55.784Z,97832.94
2022-11-17T04:47:24.237Z,97833.63
2022-11-17T04:49:54.008Z,97831.97
2022-11-17T04:52:25.544Z,97839.59
2022-11-17T04:54:57.951Z,97834.22
2022-11-17T04:57:26.326Z,97830.72
2022-11-17T04:59:55.008Z,97834.94
2022-11-17T05:02:23.408Z,97831.50
2022-11-17T05:04:59.147Z,97834.66
2022-11-17T05:07:28.155Z,97831.16
2022-11-17T05:09:56.653Z,97830.13
2022-11-17T05:12:43.633Z,97832.59
2022-11-17T05:15:12.148Z,97821.31
2022-11-17T05:17:39.561Z,97819.66
2022-11-17T05:20:10.972Z,97832.31
2022-11-17T05:23:08.423Z,97827.28
2022-11-17T05:25:36.880Z,97823.75
2022-11-17T05:28:05.524Z,97829.59
2022-11-17T05:30:33.984Z,97833.59
2022-11-17T05:33:03.577Z,97827.84
2022-11-17T05:35:33.407Z,97828.09
2022-11-17T05:38:01.872Z,97836.00
2022-11-17T05:40:30.303Z,97830.78
2022-11-17T05:42:58.680Z,97840.06
2022-11-17T05:45:27.045Z,97828.25
2022-11-17T05:47:55.508Z,97831.63
2022-11-17T05:50:23.902Z,97828.19
2022-11-17T05:52:53.648Z,97822.38
2022-11-17T05:55:22.110Z,97819.97
2022-11-17T05:57:52.698Z,97822.63
2022-11-17T06:00:21.326Z,97837.19
2022-11-17T06:02:56.985Z,97839.00
2022-11-17T06:05:25.926Z,97842.09
2022-11-17T06:07:58.234Z,97853.09
2022-11-17T06:10:28.189Z,97842.66
2022-11-17T06:12:56.539Z,97847.06
2022-11-17T06:15:25.510Z,97832.72
2022-11-17T06:18:00.455Z,97829.06
2022-11-17T06:20:33.429Z,97824.94
2022-11-17T06:23:07.212Z,97820.94
2022-11-17T06:25:38.525Z,97819.19
2022-11-17T06:28:12.124Z,97816.59
2022-11-17T06:30:41.254Z,97823.53
2022-11-17T06:33:11.969Z,97825.22
2022-11-17T06:35:41.564Z,97816.50
2022-11-17T06:38:11.571Z,97819.13
2022-11-17T06:40:40.079Z,97813.13
2022-11-17T06:43:09.683Z,97808.78
2022-11-17T06:45:39.956Z,97816.53
2022-11-17T06:48:10.522Z,97824.31
2022-11-17T06:50:39.405Z,97819.13
2022-11-17T06:53:12.773Z,97817.31
2022-11-17T06:55:41.862Z,97809.63
2022-11-17T06:58:12.331Z,97817.31
2022-11-17T07:00:40.807Z,97813.69
2022-11-17T07:03:11.487Z,97810.22
2022-11-17T07:05:40.935Z,97809.28
2022-11-17T07:08:11.285Z,97805.91
2022-11-17T07:10:42.650Z,97800.69
2022-11-17T07:13:14.838Z,97798.28
2022-11-17T07:15:43.270Z,97799.72
2022-11-17T07:18:11.736Z,97792.84
2022-11-17T07:20:40.112Z,97793.50
2022-11-17T07:23:08.545Z,97789.91
2022-11-17T07:25:38.346Z,97791.59
2022-11-17T07:28:07.119Z,97795.94
2022-11-17T07:30:36.216Z,97783.50
2022-11-17T07:33:06.359Z,97776.50
2022-11-17T07:35:37.790Z,97785.75
2022-11-17T07:38:06.250Z,97780.97
2022-11-17T07:40:34.651Z,97787.84
2022-11-17T07:43:04.853Z,97794.28
2022-11-17T07:45:36.343Z,97787.78
2022-11-17T07:48:07.061Z,97779.41
2022-11-17T07:50:37.033Z,97777.31
2022-11-17T07:53:05.465Z,97766.38
2022-11-17T07:55:33.942Z,97762.59
2022-11-17T07:58:03.751Z,97772.50
2022-11-17T08:00:33.748Z,97782.06
2022-11-17T08:03:04.123Z,97782.34
2022-11-17T08:05:35.903Z,97771.63
2022-11-17T08:08:09.385Z,97773.34
2022-11-17T08:10:37.848Z,97782.59
2022-11-17T08:13:07.659Z,97785.81
2022-11-17T08:15:36.444Z,97773.44
2022-11-17T08:18:06.448Z,97782.81
2022-11-17T08:20:34.868Z,97784.66
2022-11-17T08:23:03.234Z,97783.50
2022-11-17T08:25:31.603Z,97785.00
2022-11-17T08:28:00.559Z,97785.28
2022-11-17T08:30:31.360Z,97787.16
2022-11-17T08:32:59.905Z,97779.09
2022-11-17T08:35:31.821Z,97787.66
2022-11-17T08:38:04.361Z,97788.25
2022-11-17T08:40:32.880Z,97783.38
2022-11-17T08:43:01.863Z,97785.31
2022-11-17T08:45:31.819Z,97788.47
2022-11-17T08:48:00.493Z,97776.09
2022-11-17T08:50:29.130Z,97768.81
2022-11-17T08:52:57.494Z,97770.94
2022-11-17T08:55:26.745Z,97775.97
2022-11-17T08:57:55.143Z,97769.47
2022-11-17T09:00:23.790Z,97770.13
2022-11-17T09:02:53.554Z,97771.31
2022-11-17T09:05:21.957Z,97767.00
2022-11-17T09:07:50.527Z,97769.44
2022-11-17T09:10:19.496Z,97776.31
2022-11-17T09:12:48.018Z,97767.91
2022-11-17T09:15:16.515Z,97790.63
2022-11-17T09:17:47.765Z,97781.31
2022-11-17T09:20:18.999Z,97804.53
2022-11-17T09:22:47.664Z,97797.94
2022-11-17T09:25:16.896Z,97797.75
2022-11-17T09:27:45.306Z,97816.66
2022-11-17T09:30:14.464Z,97829.13
2022-11-17T09:32:42.825Z,97817.94
2022-11-17T09:35:11.335Z,97821.22
2022-11-17T09:37:41.054Z,97826.28
2022-11-17T09:40:15.245Z,97845.81
2022-11-17T09:42:43.947Z,97844.38
2022-11-17T09:45:19.467Z,97840.00
2022-11-17T09:48:12.443Z,97848.31
2022-11-17T09:50:47.966Z,97857.00
2022-11-17T09:53:26.347Z,97857.38
2022-11-17T09:55:59.112Z,97858.94
2022-11-17T09:58:34.923Z,97862.75
2022-11-17T10:01:03.817Z,97867.97
2022-11-17T10:03:38.769Z,97864.94
2022-11-17T10:06:16.210Z,97864.66
2022-11-17T10:09:00.440Z,97877.53
2022-11-17T10:11:35.134Z,97875.00
2022-11-17T10:14:14.208Z,97875.53
2022-11-17T10:16:45.848Z,97879.66
2022-11-17T10:19:20.083Z,97867.16
2022-11-17T10:21:53.561Z,97880.34
2022-11-17T10:24:38.735Z,97891.78
2022-11-17T10:27:20.609Z,97895.28
2022-11-17T10:29:59.762Z,97882.88
2022-11-17T10:32:30.689Z,97896.03
2022-11-17T10:35:15.949Z,97900.94
2022-11-17T10:37:55.447Z,97897.13
2022-11-17T10:40:27.865Z,97898.41
2022-11-17T10:43:15.219Z,97909.44
2022-11-17T10:45:45.432Z,97899.28
2022-11-17T10:48:29.819Z,97899.94
2022-11-17T10:51:00.490Z,97895.44
2022-11-17T10:53:43.012Z,97888.66
2022-11-17T10:56:19.009Z,97895.25
2022-11-17T10:59:00.969Z,97891.34
2022-11-17T11:01:33.346Z,97888.59
2022-11-17T11:04:02.525Z,97895.03
2022-11-17T11:06:32.953Z,97897.88
2022-11-17T11:09:06.017Z,97894.50
2022-11-17T11:11:44.172Z,97892.25
2022-11-17T11:14:27.452Z,97905.31
2022-11-17T11:16:56.715Z,97899.75
2022-11-17T11:19:25.718Z,97890.84
2022-11-17T11:22:21.605Z,97889.69
2022-11-17T11:24:56.682Z,97886.81
2022-11-17T11:28:11.447Z,97894.84
2022-11-17T11:30:53.567Z,97885.22
2022-11-17T11:33:35.194Z,97910.94
2022-11-17T11:36:33.463Z,97900.06
2022-11-17T11:39:08.676Z,97890.84
2022-11-17T11:42:08.092Z,97905.63
2022-11-17T11:45:05.573Z,97909.75
2022-11-17T11:47:57.275Z,97913.25
2022-11-17T11:50:28.299Z,97913.13
2022-11-17T11:53:04.405Z,97919.16
2022-11-17T11:55:36.873Z,97909.84
2022-11-17T11:58:15.268Z,97908.31
2022-11-17T12:00:46.512Z,97908.31
2022-11-17T12:03:26.985Z,97916.69
2022-11-17T12:06:28.068Z,97908.72
2022-11-17T12:09:21.039Z,97923.31
2022-11-17T12:12:03.132Z,97922.91
2022-11-17T12:14:34.047Z,97927.09
2022-11-17T12:17:16.033Z,97925.28
2022-11-17T12:19:57.443Z,97923.59
2022-11-17T12:23:08.853Z,97923.88
2022-11-17T12:25:38.401Z,97923.56
2022-11-17T12:28:32.083Z,97918.81
2022-11-17T12:31:08.299Z,97926.34
2022-11-17T12:34:23.018Z,97931.28
2022-11-17T12:37:27.962Z,97930.88
2022-11-17T12:40:03.223Z,97933.56
2022-11-17T12:42:33.027Z,97931.91
2022-11-17T12:45:03.852Z,97942.03
2022-11-17T12:47:34.473Z,97940.34
2022-11-17T12:50:36.737Z,97937.00
2022-11-17T12:53:40.926Z,97945.75
2022-11-17T12:56:32.765Z,97945.56
2022-11-17T12:59:19.052Z,97948.03
2022-11-17T13:01:57.505Z,97946.91
2022-11-17T13:04:36.493Z,97943.75
2022-11-17T13:07:09.157Z,97947.22
2022-11-17T13:09:38.404Z,97951.72
2022-11-17T13:12:10.692Z,97952.94
2022-11-17T13:14:54.994Z,97953.94
2022-11-17T13:17:30.065Z,97943.56
2022-11-17T13:20:06.210Z,97949.16
2022-11-17T13:22:40.611Z,97945.81
2022-11-17T13:25:23.394Z,97949.16
2022-11-17T13:27:57.146Z,97946.38
2022-11-17T13:30:29.520Z,97946.56
2022-11-17T13:33:00.993Z,97939.69
2022-11-17T13:35:32.243Z,97954.72
2022-11-17T13:38:13.595Z,97955.97
2022-11-17T13:40:44.492Z,97958.00
2022-11-17T13:43:18.444Z,97952.97
2022-11-17T13:45:47.585Z,97972.16
2022-11-17T13:48:34.998Z,97955.81
2022-11-17T13:51:25.741Z,97983.34
2022-11-17T13:53:59.262Z,97985.03
2022-11-17T13:56:36.091Z,97981.31
2022-11-17T13:59:17.734Z,97982.31
2022-11-17T14:01:46.503Z,97987.97
2022-11-17T14:04:20.447Z,97988.84
2022-11-17T14:06:59.176Z,97987.53
2022-11-17T14:09:31.822Z,97981.13
2022-11-17T14:12:01.637Z,97984.50
2022-11-17T14:14:36.998Z,97979.28
2022-11-17T14:17:14.273Z,97973.91
2022-11-17T14:19:42.729Z,97972.09
2022-11-17T14:22:31.406Z,97979.34
2022-11-17T14:25:01.837Z,97970.06
2022-11-17T14:27:42.373Z,97979.44
2022-11-17T14:30:15.820Z,97978.34
2022-11-17T14:32:44.190Z,97978.78
2022-11-17T14:35:15.298Z,97985.94
2022-11-17T14:37:43.924Z,97985.31
2022-11-17T14:40:17.716Z,97999.16
2022-11-17T14:42:46.132Z,97998.72
2022-11-17T14:45:17.084Z,97996.38
2022-11-17T14:47:46.052Z,98000.41
2022-11-17T14:50:17.062Z,97991.41
2022-11-17T14:52:46.439Z,97985.25
2022-11-17T14:55:16.675Z,97990.44
2022-11-17T14:57:45.132Z,97987.91
2022-11-17T15:00:20.067Z,97989.00
2022-11-17T15:02:49.610Z,97980.75
2022-11-17T15:05:18.363Z,97986.72
2022-11-17T15:07:49.167Z,97981.84
2022-11-17T15:10:19.542Z,97997.69
2022-11-17T15:12:48.018Z,97974.78
2022-11-17T15:15:17.474Z,98008.88
2022-11-17T15:17:45.832Z,98009.00
2022-11-17T15:20:14.174Z,98016.81
2022-11-17T15:22:42.540Z,98008.38
2022-11-17T15:25:11.208Z,98026.25
2022-11-17T15:27:41.035Z,98019.69
2022-11-17T15:30:10.613Z,98024.81
2022-11-17T15:32:39.284Z,98024.66
2022-11-17T15:35:08.935Z,98036.81
2022-11-17T15:37:37.423Z,98022.16
2022-11-17T15:40:07.499Z,98016.22
2022-11-17T15:42:35.874Z,98008.72
2022-11-17T15:45:06.709Z,98024.97
2022-11-17T15:47:35.396Z,98022.03
2022-11-17T15:50:03.796Z,98002.69
2022-11-17T15:52:56.526Z,98012.25
2022-11-17T15:55:21.452Z,98014.59
2022-11-17T15:57:49.850Z,98013.09
2022-11-17T16:00:20.360Z,98011.13
2022-11-17T16:02:48.775Z,98020.50
2022-11-17T16:05:17.555Z,98024.94
2022-11-17T16:10:19.575Z,98024.53
2022-11-17T16:12:49.556Z,98016.88
2022-11-17T16:15:19.465Z,98015.97
2022-11-17T16:17:47.857Z,98034.00
2022-11-17T16:20:16.671Z,98027.25
2022-11-17T16:22:45.163Z,98024.06
2022-11-17T16:25:13.681Z,98018.88
2022-11-17T16:27:42.167Z,98023.47
2022-11-17T16:30:13.095Z,98035.97
2022-11-17T16:32:42.896Z,98037.09
2022-11-17T16:35:11.297Z,98034.84
2022-11-17T16:37:39.807Z,98042.38
2022-11-17T16:40:09.507Z,98043.09
2022-11-17T16:42:38.283Z,98042.72
2022-11-17T16:45:08.072Z,98046.09
2022-11-17T16:47:36.886Z,98041.38
2022-11-17T16:50:07.915Z,98039.47
2022-11-17T16:52:36.482Z,98035.41
2022-11-17T16:55:05.598Z,98043.19
2022-11-17T16:57:34.134Z,98039.06
2022-11-17T17:00:02.545Z,98039.47
2022-11-17T17:02:32.610Z,98046.06
2022-11-17T17:05:01.123Z,98042.28
2022-11-17T17:07:30.924Z,98039.47
2022-11-17T17:09:59.287Z,98046.75
2022-11-17T17:12:28.990Z,98049.66
2022-11-17T17:14:57.341Z,98053.22
2022-11-17T17:17:25.915Z,98056.00
2022-11-17T17:19:54.648Z,98061.56
2022-11-17T17:22:23.527Z,98064.66
2022-11-17T17:24:53.308Z,98048.31
2022-11-17T17:27:21.738Z,98053.63
2022-11-17T17:29:50.131Z,98059.09
2022-11-17T17:32:18.604Z,98058.03
2022-11-17T17:34:46.959Z,98063.03
2022-11-17T17:37:15.342Z,98060.81
2022-11-17T17:39:43.714Z,98066.16
2022-11-17T17:42:13.823Z,98066.28
2022-11-17T17:44:42.276Z,98069.16
2022-11-17T17:47:10.669Z,98060.53
2022-11-17T17:49:39.061Z,98070.78
2022-11-17T17:52:11.010Z,98067.09
2022-11-17T17:54:42.256Z,98070.38
2022-11-17T17:57:12.053Z,98065.69
2022-11-17T17:59:40.552Z,98079.19
2022-11-17T18:02:10.229Z,98088.75
2022-11-17T18:04:38.586Z,98089.53
2022-11-17T18:07:07.000Z,98095.31
2022-11-17T18:09:35.454Z,98098.88
2022-11-17T18:12:03.914Z,98096.16
2022-11-17T18:14:33.631Z,98101.00
2022-11-17T18:17:01.957Z,98108.31
2022-11-17T18:19:33.227Z,98101.59
2022-11-17T18:22:02.311Z,98104.09
2022-11-17T18:24:30.717Z,98104.94
2022-11-17T18:26:59.172Z,98107.28
2022-11-17T18:29:27.656Z,98109.03
2022-11-17T18:31:57.399Z,98111.31
2022-11-17T18:34:26.589Z,98107.22
2022-11-17T18:36:56.678Z,98111.31
2022-11-17T18:39:27.399Z,98110.88
2022-11-17T18:41:56.165Z,98112.81
2022-11-17T18:44:24.526Z,98113.06
2022-11-17T18:46:55.001Z,98118.31
2022-11-17T18:49:26.812Z,98107.38
2022-11-17T18:51:55.157Z,98104.91
2022-11-17T18:54:23.465Z,98106.72
2022-11-17T18:56:51.807Z,98109.63
2022-11-17T18:59:20.253Z,98109.03
2022-11-17T19:01:49.051Z,98114.16
2022-11-17T19:04:18.274Z,98123.53
2022-11-17T19:06:47.983Z,98125.28
2022-11-17T19:09:17.904Z,98121.25
2022-11-17T19:11:46.526Z,98107.03
2022-11-17T19:14:14.859Z,98104.34
2022-11-17T19:16:45.104Z,98103.41
2022-11-17T19:19:15.202Z,98108.59
2022-11-17T19:21:44.557Z,98111.44
2022-11-17T19:24:15.563Z,98111.38
2022-11-17T19:26:44.159Z,98108.72
2022-11-17T19:29:17.078Z,98101.19
2022-11-17T19:31:46.828Z,98102.13
2022-11-17T19:34:15.844Z,98119.06
2022-11-17T19:36:44.579Z,98118.28
2022-11-17T19:39:15.437Z,98119.44
2022-11-17T19:41:45.224Z,98109.31
2022-11-17T19:44:13.933Z,98117.25
2022-11-17T19:46:43.291Z,98123.22
2022-11-17T19:49:14.066Z,98120.47
2022-11-17T19:51:42.869Z,98132.41
2022-11-17T19:54:14.611Z,98139.59
2022-11-17T19:56:43.141Z,98143.75
2022-11-17T19:59:16.147Z,98137.28
2022-11-17T20:01:45.829Z,98154.53
2022-11-17T20:04:14.334Z,98144.19
2022-11-17T20:06:42.773Z,98149.38
2022-11-17T20:09:15.364Z,98158.03
2022-11-17T20:11:44.350Z,98156.41
2022-11-17T20:14:14.403Z,98158.84
2022-11-17T20:16:42.825Z,98149.38
2022-11-17T20:19:12.283Z,98144.19
2022-11-17T20:21:40.888Z,98145.16
2022-11-17T20:24:10.028Z,98139.13
2022-11-17T20:26:43.013Z,98130.59
2022-11-17T20:29:11.409Z,98132.53
2022-11-17T20:31:39.840Z,98131.72
2022-11-17T20:34:08.211Z,98129.16
2022-11-17T20:36:36.623Z,98137.78
2022-11-17T20:39:07.759Z,98137.69
2022-11-17T20:41:36.439Z,98147.94
2022-11-17T20:44:23.767Z,98142.06
2022-11-17T20:46:53.078Z,98146.22
2022-11-17T20:49:21.834Z,98146.22
2022-11-17T20:51:50.189Z,98150.44
2022-11-17T20:54:18.513Z,98162.44
2022-11-17T20:56:47.026Z,98166.69
2022-11-17T20:59:20.047Z,98159.00
2022-11-17T21:01:50.512Z,98170.06
2022-11-17T21:04:19.125Z,98166.69
2022-11-17T21:06:47.484Z,98171.69
2022-11-17T21:09:16.272Z,98169.84
2022-11-17T21:12:00.251Z,98180.19
2022-11-17T21:14:30.632Z,98176.84
2022-11-17T21:17:00.487Z,98192.25
2022-11-17T21:19:31.683Z,98182.97
2022-11-17T21:22:02.700Z,98184.78
2022-11-17T21:24:31.118Z,98200.13
2022-11-17T21:26:59.491Z,98201.78
2022-11-17T21:29:30.077Z,98198.53
2022-11-17T21:31:58.443Z,98201.34
2022-11-17T21:34:26.846Z,98204.84
2022-11-17T21:36:55.310Z,98209.31
2022-11-17T21:39:24.670Z,98210.84
2022-11-17T21:41:53.185Z,98204.72
2022-11-17T21:44:21.874Z,98211.69
2022-11-17T21:46:51.721Z,98208.88
2022-11-17T21:49:20.134Z,98214.97
2022-11-17T21:51:48.549Z,98214.97
2022-11-17T21:54:17.044Z,98213.16
2022-11-17T21:56:46.081Z,98208.06
2022-11-17T21:59:17.164Z,98211.56
2022-11-17T22:01:45.907Z,98202.97
2022-11-17T22:04:15.982Z,98199.31
2022-11-17T22:06:44.433Z,98204.72
2022-11-17T22:09:13.390Z,98198.19
2022-11-17T22:11:42.084Z,98214.97
2022-11-17T22:14:12.923Z,98211.47
2022-11-17T22:16:43.246Z,98216.75
2022-11-17T22:19:13.389Z,98222.75
2022-11-17T22:21:43.539Z,98227.00
2022-11-17T22:24:13.734Z,98231.16
2022-11-17T22:26:43.866Z,98226.75
2022-11-17T22:29:14.955Z,98227.72
2022-11-17T22:31:44.170Z,98232.88
2022-11-17T22:34:13.109Z,98227.78
2022-11-17T22:36:42.952Z,98230.38
2022-11-17T22:39:11.363Z,98234.53
2022-11-17T22:41:40.890Z,98235.19
2022-11-17T22:44:09.667Z,98235.09
2022-11-17T22:46:40.491Z,98229.91
2022-11-17T22:49:08.897Z,98228.06
2022-11-17T22:51:54.854Z,98227.53
2022-11-17T22:54:24.612Z,98226.81
2022-11-17T22:56:52.986Z,98230.94
2022-11-17T22:59:23.780Z,98241.16
2022-11-17T23:01:52.116Z,98234.91
2022-11-17T23:04:20.675Z,98231.44
2022-11-17T23:06:49.070Z,98227.94
2022-11-17T23:09:17.864Z,98227.81
2022-11-17T23:11:47.888Z,98226.03
2022-11-17T23:14:16.551Z,98220.78
2022-11-17T23:16:44.949Z,98223.13
2022-11-17T23:19:14.752Z,98229.88
2022-11-17T23:21:43.392Z,98222.03
2022-11-17T23:24:12.955Z,98225.94
2022-11-17T23:26:42.091Z,98222.31
2022-11-17T23:29:12.045Z,98217.91
2022-11-17T23:31:40.455Z,98214.69
2022-11-17T23:34:11.065Z,98220.75
2022-11-17T23:36:39.417Z,98226.94
2022-11-17T23:39:07.936Z,98227.84
2022-11-17T23:41:36.313Z,98227.84
2022-11-17T23:44:04.932Z,98222.78
2022-11-17T23:46:34.636Z,98233.03
2022-11-17T23:49:03.261Z,98234.22
2022-11-17T23:51:31.669Z,98230.59
2022-11-17T23:54:02.827Z,98233.28
2022-11-17T23:56:34.454Z,98238.22
2022-11-17T23:59:03.202Z,98244.09
